sensor_id;sensor_type;location;lat;lon;timestamp;P1;durP1;ratioP1;P2;durP2;ratioP2
29452;SDS011;16424;50.956;5.320;2023-11-21T00:01:52;188.20;;;172.40;;
29452;SDS011;16424;50.956;5.320;2023-11-21T00:04:17;193.10;;;177.40;;
29452;SDS011;16424;50.956;5.320;2023-11-21T00:06:43;186.90;;;170.90;;
29452;SDS011;16424;50.956;5.320;2023-11-21T00:09:11;186.40;;;171.40;;
29452;SDS011;16424;50.956;5.320;2023-11-21T00:11:38;185.25;;;169.88;;
29452;SDS011;16424;50.956;5.320;2023-11-21T00:14:04;181.43;;;167.05;;
29452;SDS011;16424;50.956;5.320;2023-11-21T00:16:29;183.02;;;168.45;;
29452;SDS011;16424;50.956;5.320;2023-11-21T00:18:55;184.20;;;170.32;;
29452;SDS011;16424;50.956;5.320;2023-11-21T00:21:21;177.30;;;163.43;;
29452;SDS011;16424;50.956;5.320;2023-11-21T00:23:47;177.98;;;163.02;;
29452;SDS011;16424;50.956;5.320;2023-11-21T00:26:13;176.13;;;161.85;;
29452;SDS011;16424;50.956;5.320;2023-11-21T00:28:39;174.35;;;160.50;;
29452;SDS011;16424;50.956;5.320;2023-11-21T00:31:05;184.23;;;169.35;;
29452;SDS011;16424;50.956;5.320;2023-11-21T00:33:31;178.52;;;164.15;;
29452;SDS011;16424;50.956;5.320;2023-11-21T00:35:57;176.38;;;162.38;;
29452;SDS011;16424;50.956;5.320;2023-11-21T00:38:23;180.32;;;166.93;;
29452;SDS011;16424;50.956;5.320;2023-11-21T00:40:49;176.07;;;162.75;;
29452;SDS011;16424;50.956;5.320;2023-11-21T00:43:14;176.98;;;162.80;;
29452;SDS011;16424;50.956;5.320;2023-11-21T00:45:40;170.35;;;157.45;;
29452;SDS011;16424;50.956;5.320;2023-11-21T00:48:06;172.45;;;159.57;;
29452;SDS011;16424;50.956;5.320;2023-11-21T00:50:33;170.57;;;157.15;;
29452;SDS011;16424;50.956;5.320;2023-11-21T00:52:59;169.85;;;157.50;;
29452;SDS011;16424;50.956;5.320;2023-11-21T00:55:25;179.05;;;166.07;;
29452;SDS011;16424;50.956;5.320;2023-11-21T00:57:51;170.23;;;158.30;;
29452;SDS011;16424;50.956;5.320;2023-11-21T01:00:17;161.73;;;149.60;;
29452;SDS011;16424;50.956;5.320;2023-11-21T01:02:45;164.73;;;152.88;;
29452;SDS011;16424;50.956;5.320;2023-11-21T01:05:12;167.25;;;155.15;;
29452;SDS011;16424;50.956;5.320;2023-11-21T01:07:38;169.02;;;156.93;;
29452;SDS011;16424;50.956;5.320;2023-11-21T01:10:04;170.15;;;158.02;;
29452;SDS011;16424;50.956;5.320;2023-11-21T01:12:33;169.32;;;156.63;;
29452;SDS011;16424;50.956;5.320;2023-11-21T01:15:00;171.25;;;158.88;;
29452;SDS011;16424;50.956;5.320;2023-11-21T01:17:26;169.05;;;156.77;;
29452;SDS011;16424;50.956;5.320;2023-11-21T01:19:52;171.88;;;159.27;;
29452;SDS011;16424;50.956;5.320;2023-11-21T01:22:17;172.00;;;159.40;;
29452;SDS011;16424;50.956;5.320;2023-11-21T01:24:47;171.07;;;158.93;;
29452;SDS011;16424;50.956;5.320;2023-11-21T01:27:13;169.65;;;157.63;;
29452;SDS011;16424;50.956;5.320;2023-11-21T01:29:38;175.00;;;162.32;;
29452;SDS011;16424;50.956;5.320;2023-11-21T01:32:04;173.38;;;161.35;;
29452;SDS011;16424;50.956;5.320;2023-11-21T01:34:32;169.52;;;157.45;;
29452;SDS011;16424;50.956;5.320;2023-11-21T01:36:58;167.93;;;156.63;;
29452;SDS011;16424;50.956;5.320;2023-11-21T01:39:24;168.95;;;156.63;;
29452;SDS011;16424;50.956;5.320;2023-11-21T01:41:51;160.85;;;149.55;;
29452;SDS011;16424;50.956;5.320;2023-11-21T01:44:17;160.15;;;149.05;;
29452;SDS011;16424;50.956;5.320;2023-11-21T01:46:44;162.93;;;151.80;;
29452;SDS011;16424;50.956;5.320;2023-11-21T01:49:11;155.82;;;144.77;;
29452;SDS011;16424;50.956;5.320;2023-11-21T01:51:38;163.73;;;152.02;;
29452;SDS011;16424;50.956;5.320;2023-11-21T01:54:06;164.40;;;152.40;;
29452;SDS011;16424;50.956;5.320;2023-11-21T01:56:32;160.68;;;149.32;;
29452;SDS011;16424;50.956;5.320;2023-11-21T01:58:58;159.75;;;148.10;;
29452;SDS011;16424;50.956;5.320;2023-11-21T02:01:24;157.13;;;145.27;;
29452;SDS011;16424;50.956;5.320;2023-11-21T02:03:51;163.32;;;151.13;;
29452;SDS011;16424;50.956;5.320;2023-11-21T02:06:17;159.60;;;147.23;;
29452;SDS011;16424;50.956;5.320;2023-11-21T02:08:43;155.93;;;144.30;;
29452;SDS011;16424;50.956;5.320;2023-11-21T02:11:09;164.90;;;152.27;;
29452;SDS011;16424;50.956;5.320;2023-11-21T02:13:38;167.40;;;154.02;;
29452;SDS011;16424;50.956;5.320;2023-11-21T02:16:08;166.43;;;153.23;;
29452;SDS011;16424;50.956;5.320;2023-11-21T02:18:39;164.80;;;152.02;;
29452;SDS011;16424;50.956;5.320;2023-11-21T02:21:06;170.50;;;157.00;;
29452;SDS011;16424;50.956;5.320;2023-11-21T02:23:32;171.57;;;157.93;;
29452;SDS011;16424;50.956;5.320;2023-11-21T02:25:58;164.18;;;151.65;;
29452;SDS011;16424;50.956;5.320;2023-11-21T02:28:24;159.82;;;148.00;;
29452;SDS011;16424;50.956;5.320;2023-11-21T02:30:52;163.68;;;150.32;;
29452;SDS011;16424;50.956;5.320;2023-11-21T02:33:22;154.02;;;141.55;;
29452;SDS011;16424;50.956;5.320;2023-11-21T02:35:48;153.88;;;141.57;;
29452;SDS011;16424;50.956;5.320;2023-11-21T02:38:14;154.07;;;141.15;;
29452;SDS011;16424;50.956;5.320;2023-11-21T02:40:40;157.55;;;144.68;;
29452;SDS011;16424;50.956;5.320;2023-11-21T02:43:07;159.13;;;145.70;;
29452;SDS011;16424;50.956;5.320;2023-11-21T02:45:32;161.25;;;148.10;;
29452;SDS011;16424;50.956;5.320;2023-11-21T02:47:58;158.77;;;145.45;;
29452;SDS011;16424;50.956;5.320;2023-11-21T02:50:24;157.38;;;144.57;;
29452;SDS011;16424;50.956;5.320;2023-11-21T02:52:50;159.73;;;146.25;;
29452;SDS011;16424;50.956;5.320;2023-11-21T02:55:16;162.75;;;149.13;;
29452;SDS011;16424;50.956;5.320;2023-11-21T02:57:42;164.07;;;149.85;;
29452;SDS011;16424;50.956;5.320;2023-11-21T03:00:07;164.35;;;150.73;;
29452;SDS011;16424;50.956;5.320;2023-11-21T03:02:35;161.25;;;146.60;;
29452;SDS011;16424;50.956;5.320;2023-11-21T03:05:03;161.38;;;147.02;;
29452;SDS011;16424;50.956;5.320;2023-11-21T03:07:30;166.77;;;152.00;;
29452;SDS011;16424;50.956;5.320;2023-11-21T03:09:56;166.35;;;150.82;;
29452;SDS011;16424;50.956;5.320;2023-11-21T03:12:21;166.82;;;151.90;;
29452;SDS011;16424;50.956;5.320;2023-11-21T03:14:47;164.35;;;149.48;;
29452;SDS011;16424;50.956;5.320;2023-11-21T03:17:13;164.98;;;150.32;;
29452;SDS011;16424;50.956;5.320;2023-11-21T03:19:41;161.35;;;146.50;;
29452;SDS011;16424;50.956;5.320;2023-11-21T03:22:07;164.45;;;148.52;;
29452;SDS011;16424;50.956;5.320;2023-11-21T03:24:33;161.93;;;146.55;;
29452;SDS011;16424;50.956;5.320;2023-11-21T03:26:59;160.98;;;145.85;;
29452;SDS011;16424;50.956;5.320;2023-11-21T03:29:25;154.30;;;140.25;;
29452;SDS011;16424;50.956;5.320;2023-11-21T03:31:51;153.00;;;138.23;;
29452;SDS011;16424;50.956;5.320;2023-11-21T03:34:22;155.07;;;139.68;;
29452;SDS011;16424;50.956;5.320;2023-11-21T03:36:49;155.27;;;140.48;;
29452;SDS011;16424;50.956;5.320;2023-11-21T03:39:14;157.45;;;143.07;;
29452;SDS011;16424;50.956;5.320;2023-11-21T03:41:40;154.50;;;140.68;;
29452;SDS011;16424;50.956;5.320;2023-11-21T03:44:06;147.10;;;133.73;;
29452;SDS011;16424;50.956;5.320;2023-11-21T03:46:31;152.52;;;138.93;;
29452;SDS011;16424;50.956;5.320;2023-11-21T03:48:57;147.30;;;132.60;;
29452;SDS011;16424;50.956;5.320;2023-11-21T03:51:23;141.95;;;128.43;;
29452;SDS011;16424;50.956;5.320;2023-11-21T03:53:48;143.93;;;129.73;;
29452;SDS011;16424;50.956;5.320;2023-11-21T03:56:14;146.23;;;132.05;;
29452;SDS011;16424;50.956;5.320;2023-11-21T03:58:40;144.77;;;131.27;;
29452;SDS011;16424;50.956;5.320;2023-11-21T04:01:05;149.13;;;135.13;;
29452;SDS011;16424;50.956;5.320;2023-11-21T04:03:31;145.07;;;131.57;;
29452;SDS011;16424;50.956;5.320;2023-11-21T04:05:56;147.60;;;133.05;;
29452;SDS011;16424;50.956;5.320;2023-11-21T04:08:22;147.55;;;133.02;;
29452;SDS011;16424;50.956;5.320;2023-11-21T04:10:48;149.75;;;135.13;;
29452;SDS011;16424;50.956;5.320;2023-11-21T04:13:13;152.02;;;137.07;;
29452;SDS011;16424;50.956;5.320;2023-11-21T04:15:39;152.25;;;137.65;;
29452;SDS011;16424;50.956;5.320;2023-11-21T04:18:05;154.43;;;139.55;;
29452;SDS011;16424;50.956;5.320;2023-11-21T04:20:30;149.45;;;135.38;;
29452;SDS011;16424;50.956;5.320;2023-11-21T04:22:57;148.88;;;134.93;;
29452;SDS011;16424;50.956;5.320;2023-11-21T04:25:22;145.25;;;131.20;;
29452;SDS011;16424;50.956;5.320;2023-11-21T04:27:48;150.80;;;135.32;;
29452;SDS011;16424;50.956;5.320;2023-11-21T04:30:14;139.45;;;126.10;;
29452;SDS011;16424;50.956;5.320;2023-11-21T04:32:40;149.50;;;134.40;;
29452;SDS011;16424;50.956;5.320;2023-11-21T04:35:07;148.77;;;133.27;;
29452;SDS011;16424;50.956;5.320;2023-11-21T04:37:36;142.65;;;128.25;;
29452;SDS011;16424;50.956;5.320;2023-11-21T04:40:02;141.98;;;128.32;;
29452;SDS011;16424;50.956;5.320;2023-11-21T04:42:32;138.45;;;124.47;;
29452;SDS011;16424;50.956;5.320;2023-11-21T04:45:01;146.02;;;130.63;;
29452;SDS011;16424;50.956;5.320;2023-11-21T04:47:30;139.73;;;125.63;;
29452;SDS011;16424;50.956;5.320;2023-11-21T04:49:55;140.52;;;126.30;;
29452;SDS011;16424;50.956;5.320;2023-11-21T04:52:21;138.07;;;125.35;;
29452;SDS011;16424;50.956;5.320;2023-11-21T04:54:46;140.40;;;126.60;;
29452;SDS011;16424;50.956;5.320;2023-11-21T04:57:13;139.05;;;126.28;;
29452;SDS011;16424;50.956;5.320;2023-11-21T04:59:39;142.77;;;129.27;;
29452;SDS011;16424;50.956;5.320;2023-11-21T05:02:04;148.75;;;134.38;;
29452;SDS011;16424;50.956;5.320;2023-11-21T05:04:30;141.90;;;127.57;;
29452;SDS011;16424;50.956;5.320;2023-11-21T05:06:56;136.75;;;122.90;;
29452;SDS011;16424;50.956;5.320;2023-11-21T05:09:21;143.25;;;129.75;;
29452;SDS011;16424;50.956;5.320;2023-11-21T05:11:47;142.00;;;127.30;;
29452;SDS011;16424;50.956;5.320;2023-11-21T05:14:13;142.07;;;127.25;;
29452;SDS011;16424;50.956;5.320;2023-11-21T05:16:39;139.38;;;125.25;;
29452;SDS011;16424;50.956;5.320;2023-11-21T05:19:04;136.98;;;123.13;;
29452;SDS011;16424;50.956;5.320;2023-11-21T05:21:31;137.30;;;123.90;;
29452;SDS011;16424;50.956;5.320;2023-11-21T05:24:01;139.63;;;125.13;;
29452;SDS011;16424;50.956;5.320;2023-11-21T05:26:27;132.43;;;120.63;;
29452;SDS011;16424;50.956;5.320;2023-11-21T05:28:52;138.05;;;124.03;;
29452;SDS011;16424;50.956;5.320;2023-11-21T05:31:18;136.13;;;122.38;;
29452;SDS011;16424;50.956;5.320;2023-11-21T05:33:44;140.57;;;126.28;;
29452;SDS011;16424;50.956;5.320;2023-11-21T05:36:10;138.85;;;124.97;;
29452;SDS011;16424;50.956;5.320;2023-11-21T05:38:35;140.00;;;126.00;;
29452;SDS011;16424;50.956;5.320;2023-11-21T05:41:04;143.60;;;129.70;;
29452;SDS011;16424;50.956;5.320;2023-11-21T05:43:30;137.05;;;123.28;;
29452;SDS011;16424;50.956;5.320;2023-11-21T05:45:57;142.75;;;129.35;;
29452;SDS011;16424;50.956;5.320;2023-11-21T05:48:23;145.10;;;131.32;;
29452;SDS011;16424;50.956;5.320;2023-11-21T05:50:49;145.90;;;131.48;;
29452;SDS011;16424;50.956;5.320;2023-11-21T05:53:15;138.65;;;125.72;;
29452;SDS011;16424;50.956;5.320;2023-11-21T05:55:41;142.93;;;128.82;;
29452;SDS011;16424;50.956;5.320;2023-11-21T05:58:07;143.82;;;129.45;;
29452;SDS011;16424;50.956;5.320;2023-11-21T06:00:33;139.82;;;126.35;;
29452;SDS011;16424;50.956;5.320;2023-11-21T06:02:59;140.50;;;126.95;;
29452;SDS011;16424;50.956;5.320;2023-11-21T06:05:25;141.68;;;127.78;;
29452;SDS011;16424;50.956;5.320;2023-11-21T06:07:52;145.07;;;130.88;;
29452;SDS011;16424;50.956;5.320;2023-11-21T06:10:20;142.95;;;128.80;;
29452;SDS011;16424;50.956;5.320;2023-11-21T06:12:46;143.90;;;129.68;;
29452;SDS011;16424;50.956;5.320;2023-11-21T06:15:12;143.60;;;129.88;;
29452;SDS011;16424;50.956;5.320;2023-11-21T06:17:41;140.75;;;126.82;;
29452;SDS011;16424;50.956;5.320;2023-11-21T06:20:08;147.93;;;132.45;;
29452;SDS011;16424;50.956;5.320;2023-11-21T06:22:39;146.30;;;132.38;;
29452;SDS011;16424;50.956;5.320;2023-11-21T06:25:06;146.93;;;132.35;;
29452;SDS011;16424;50.956;5.320;2023-11-21T06:27:33;149.55;;;134.13;;
29452;SDS011;16424;50.956;5.320;2023-11-21T06:30:01;151.05;;;134.90;;
29452;SDS011;16424;50.956;5.320;2023-11-21T06:32:27;152.55;;;136.68;;
29452;SDS011;16424;50.956;5.320;2023-11-21T06:34:54;152.20;;;137.00;;
29452;SDS011;16424;50.956;5.320;2023-11-21T06:37:21;154.55;;;139.60;;
29452;SDS011;16424;50.956;5.320;2023-11-21T06:39:50;157.25;;;142.25;;
29452;SDS011;16424;50.956;5.320;2023-11-21T06:42:17;159.20;;;142.32;;
29452;SDS011;16424;50.956;5.320;2023-11-21T06:44:44;152.82;;;138.25;;
29452;SDS011;16424;50.956;5.320;2023-11-21T06:47:10;154.32;;;138.75;;
29452;SDS011;16424;50.956;5.320;2023-11-21T06:49:36;158.25;;;143.10;;
29452;SDS011;16424;50.956;5.320;2023-11-21T06:52:03;156.25;;;141.38;;
29452;SDS011;16424;50.956;5.320;2023-11-21T06:54:30;151.45;;;136.00;;
29452;SDS011;16424;50.956;5.320;2023-11-21T06:56:57;158.05;;;142.50;;
29452;SDS011;16424;50.956;5.320;2023-11-21T06:59:23;154.30;;;139.57;;
29452;SDS011;16424;50.956;5.320;2023-11-21T07:01:49;149.73;;;135.05;;
29452;SDS011;16424;50.956;5.320;2023-11-21T07:04:15;155.88;;;140.18;;
29452;SDS011;16424;50.956;5.320;2023-11-21T07:06:41;151.43;;;136.07;;
29452;SDS011;16424;50.956;5.320;2023-11-21T07:09:08;156.15;;;139.73;;
29452;SDS011;16424;50.956;5.320;2023-11-21T07:11:34;161.77;;;145.50;;
29452;SDS011;16424;50.956;5.320;2023-11-21T07:14:00;160.90;;;144.52;;
29452;SDS011;16424;50.956;5.320;2023-11-21T07:16:32;157.57;;;141.38;;
29452;SDS011;16424;50.956;5.320;2023-11-21T07:19:03;157.98;;;141.30;;
29452;SDS011;16424;50.956;5.320;2023-11-21T07:21:31;157.35;;;140.90;;
29452;SDS011;16424;50.956;5.320;2023-11-21T07:23:58;157.15;;;140.77;;
29452;SDS011;16424;50.956;5.320;2023-11-21T07:26:24;156.18;;;135.52;;
29452;SDS011;16424;50.956;5.320;2023-11-21T07:28:51;154.95;;;138.38;;
29452;SDS011;16424;50.956;5.320;2023-11-21T07:31:16;157.43;;;141.38;;
29452;SDS011;16424;50.956;5.320;2023-11-21T07:33:42;159.65;;;143.63;;
29452;SDS011;16424;50.956;5.320;2023-11-21T07:36:08;160.32;;;143.40;;
29452;SDS011;16424;50.956;5.320;2023-11-21T07:38:35;159.07;;;142.98;;
29452;SDS011;16424;50.956;5.320;2023-11-21T07:41:01;166.10;;;149.35;;
29452;SDS011;16424;50.956;5.320;2023-11-21T07:43:27;170.13;;;153.32;;
29452;SDS011;16424;50.956;5.320;2023-11-21T07:45:59;159.63;;;143.00;;
29452;SDS011;16424;50.956;5.320;2023-11-21T07:48:27;161.77;;;145.82;;
29452;SDS011;16424;50.956;5.320;2023-11-21T07:50:53;164.02;;;147.70;;
29452;SDS011;16424;50.956;5.320;2023-11-21T07:53:19;159.52;;;142.93;;
29452;SDS011;16424;50.956;5.320;2023-11-21T07:55:44;158.57;;;142.75;;
29452;SDS011;16424;50.956;5.320;2023-11-21T07:58:12;163.02;;;147.20;;
29452;SDS011;16424;50.956;5.320;2023-11-21T08:00:38;160.05;;;143.15;;
29452;SDS011;16424;50.956;5.320;2023-11-21T08:03:04;160.35;;;143.60;;
29452;SDS011;16424;50.956;5.320;2023-11-21T08:05:30;159.23;;;142.00;;
29452;SDS011;16424;50.956;5.320;2023-11-21T08:07:56;166.57;;;149.98;;
29452;SDS011;16424;50.956;5.320;2023-11-21T08:10:22;167.85;;;151.43;;
29452;SDS011;16424;50.956;5.320;2023-11-21T08:12:48;160.93;;;145.35;;
29452;SDS011;16424;50.956;5.320;2023-11-21T08:15:15;162.60;;;147.07;;
29452;SDS011;16424;50.956;5.320;2023-11-21T08:17:41;156.40;;;141.25;;
29452;SDS011;16424;50.956;5.320;2023-11-21T08:20:07;158.30;;;144.15;;
29452;SDS011;16424;50.956;5.320;2023-11-21T08:22:35;158.77;;;143.52;;
29452;SDS011;16424;50.956;5.320;2023-11-21T08:25:01;160.70;;;146.23;;
29452;SDS011;16424;50.956;5.320;2023-11-21T08:27:29;154.50;;;140.18;;
29452;SDS011;16424;50.956;5.320;2023-11-21T08:29:54;151.13;;;137.20;;
29452;SDS011;16424;50.956;5.320;2023-11-21T08:32:21;153.75;;;139.52;;
29452;SDS011;16424;50.956;5.320;2023-11-21T08:34:47;155.95;;;141.90;;
29452;SDS011;16424;50.956;5.320;2023-11-21T08:37:15;157.73;;;143.77;;
29452;SDS011;16424;50.956;5.320;2023-11-21T08:39:43;151.50;;;137.77;;
29452;SDS011;16424;50.956;5.320;2023-11-21T08:42:09;153.25;;;139.75;;
29452;SDS011;16424;50.956;5.320;2023-11-21T08:44:35;143.93;;;130.80;;
29452;SDS011;16424;50.956;5.320;2023-11-21T08:47:01;142.18;;;129.32;;
29452;SDS011;16424;50.956;5.320;2023-11-21T08:49:27;147.18;;;134.25;;
29452;SDS011;16424;50.956;5.320;2023-11-21T08:51:54;146.63;;;134.70;;
29452;SDS011;16424;50.956;5.320;2023-11-21T08:54:24;149.23;;;136.20;;
29452;SDS011;16424;50.956;5.320;2023-11-21T08:56:51;147.30;;;134.90;;
29452;SDS011;16424;50.956;5.320;2023-11-21T08:59:17;134.38;;;123.10;;
29452;SDS011;16424;50.956;5.320;2023-11-21T09:01:45;138.93;;;126.53;;
29452;SDS011;16424;50.956;5.320;2023-11-21T09:04:11;133.18;;;121.55;;
29452;SDS011;16424;50.956;5.320;2023-11-21T09:06:37;131.13;;;120.43;;
29452;SDS011;16424;50.956;5.320;2023-11-21T09:09:04;130.38;;;119.05;;
29452;SDS011;16424;50.956;5.320;2023-11-21T09:11:31;130.35;;;119.57;;
29452;SDS011;16424;50.956;5.320;2023-11-21T09:13:59;128.75;;;117.95;;
29452;SDS011;16424;50.956;5.320;2023-11-21T09:16:25;134.55;;;124.07;;
29452;SDS011;16424;50.956;5.320;2023-11-21T09:18:51;126.82;;;116.30;;
29452;SDS011;16424;50.956;5.320;2023-11-21T09:21:17;124.03;;;114.18;;
29452;SDS011;16424;50.956;5.320;2023-11-21T09:23:44;125.05;;;114.80;;
29452;SDS011;16424;50.956;5.320;2023-11-21T09:26:10;119.28;;;109.80;;
29452;SDS011;16424;50.956;5.320;2023-11-21T09:28:35;120.95;;;111.50;;
29452;SDS011;16424;50.956;5.320;2023-11-21T09:31:04;117.35;;;108.22;;
29452;SDS011;16424;50.956;5.320;2023-11-21T09:33:30;120.82;;;111.82;;
29452;SDS011;16424;50.956;5.320;2023-11-21T09:35:56;123.97;;;114.38;;
29452;SDS011;16424;50.956;5.320;2023-11-21T09:38:22;122.88;;;113.45;;
29452;SDS011;16424;50.956;5.320;2023-11-21T09:40:48;120.32;;;111.20;;
29452;SDS011;16424;50.956;5.320;2023-11-21T09:43:17;119.78;;;110.72;;
29452;SDS011;16424;50.956;5.320;2023-11-21T09:45:47;116.97;;;108.00;;
29452;SDS011;16424;50.956;5.320;2023-11-21T09:48:19;110.60;;;102.20;;
29452;SDS011;16424;50.956;5.320;2023-11-21T09:50:45;105.07;;;97.00;;
29452;SDS011;16424;50.956;5.320;2023-11-21T09:55:50;95.47;;;87.75;;
29452;SDS011;16424;50.956;5.320;2023-11-21T09:58:17;92.80;;;85.57;;
29452;SDS011;16424;50.956;5.320;2023-11-21T10:00:45;90.30;;;83.38;;
29452;SDS011;16424;50.956;5.320;2023-11-21T10:03:11;91.97;;;84.70;;
29452;SDS011;16424;50.956;5.320;2023-11-21T10:05:38;92.07;;;84.63;;
29452;SDS011;16424;50.956;5.320;2023-11-21T10:08:07;89.07;;;81.55;;
29452;SDS011;16424;50.956;5.320;2023-11-21T10:10:37;89.70;;;82.70;;
29452;SDS011;16424;50.956;5.320;2023-11-21T10:13:09;94.82;;;86.93;;
29452;SDS011;16424;50.956;5.320;2023-11-21T10:15:37;92.47;;;84.93;;
29452;SDS011;16424;50.956;5.320;2023-11-21T10:18:04;93.00;;;85.30;;
29452;SDS011;16424;50.956;5.320;2023-11-21T10:20:32;90.70;;;83.45;;
29452;SDS011;16424;50.956;5.320;2023-11-21T10:23:03;90.80;;;83.57;;
29452;SDS011;16424;50.956;5.320;2023-11-21T10:25:30;87.47;;;80.18;;
29452;SDS011;16424;50.956;5.320;2023-11-21T10:27:59;91.32;;;83.20;;
29452;SDS011;16424;50.956;5.320;2023-11-21T10:30:33;91.40;;;84.25;;
29452;SDS011;16424;50.956;5.320;2023-11-21T10:33:06;92.03;;;84.30;;
29452;SDS011;16424;50.956;5.320;2023-11-21T10:38:05;100.07;;;92.10;;
29452;SDS011;16424;50.956;5.320;2023-11-21T10:40:30;92.90;;;85.47;;
29452;SDS011;16424;50.956;5.320;2023-11-21T10:43:05;91.80;;;84.43;;
29452;SDS011;16424;50.956;5.320;2023-11-21T10:45:33;85.32;;;78.13;;
29452;SDS011;16424;50.956;5.320;2023-11-21T10:47:59;80.75;;;73.90;;
29452;SDS011;16424;50.956;5.320;2023-11-21T10:50:25;83.68;;;76.32;;
29452;SDS011;16424;50.956;5.320;2023-11-21T10:52:51;80.72;;;73.57;;
29452;SDS011;16424;50.956;5.320;2023-11-21T10:55:20;89.72;;;81.85;;
29452;SDS011;16424;50.956;5.320;2023-11-21T10:57:51;88.82;;;81.57;;
29452;SDS011;16424;50.956;5.320;2023-11-21T11:00:19;86.25;;;78.97;;
29452;SDS011;16424;50.956;5.320;2023-11-21T11:02:50;92.20;;;84.88;;
29452;SDS011;16424;50.956;5.320;2023-11-21T11:05:20;91.53;;;83.78;;
29452;SDS011;16424;50.956;5.320;2023-11-21T11:07:49;89.60;;;82.38;;
29452;SDS011;16424;50.956;5.320;2023-11-21T11:10:20;87.07;;;80.00;;
29452;SDS011;16424;50.956;5.320;2023-11-21T11:12:48;84.90;;;77.85;;
29452;SDS011;16424;50.956;5.320;2023-11-21T11:15:15;89.28;;;80.82;;
29452;SDS011;16424;50.956;5.320;2023-11-21T11:17:41;83.82;;;76.55;;
29452;SDS011;16424;50.956;5.320;2023-11-21T11:20:10;89.35;;;81.93;;
29452;SDS011;16424;50.956;5.320;2023-11-21T11:22:42;90.65;;;82.63;;
29452;SDS011;16424;50.956;5.320;2023-11-21T11:27:59;88.40;;;81.07;;
29452;SDS011;16424;50.956;5.320;2023-11-21T11:30:41;89.43;;;81.63;;
29452;SDS011;16424;50.956;5.320;2023-11-21T11:36:10;99.75;;;91.20;;
29452;SDS011;16424;50.956;5.320;2023-11-21T11:38:38;102.32;;;93.43;;
29452;SDS011;16424;50.956;5.320;2023-11-21T11:41:10;105.13;;;96.15;;
29452;SDS011;16424;50.956;5.320;2023-11-21T11:43:35;109.30;;;100.82;;
29452;SDS011;16424;50.956;5.320;2023-11-21T11:46:11;115.07;;;105.70;;
29452;SDS011;16424;50.956;5.320;2023-11-21T11:48:40;116.47;;;107.03;;
29452;SDS011;16424;50.956;5.320;2023-11-21T11:51:09;119.78;;;110.55;;
29452;SDS011;16424;50.956;5.320;2023-11-21T11:53:43;119.60;;;110.32;;
29452;SDS011;16424;50.956;5.320;2023-11-21T11:56:26;118.75;;;108.75;;
29452;SDS011;16424;50.956;5.320;2023-11-21T11:58:56;123.47;;;113.75;;
29452;SDS011;16424;50.956;5.320;2023-11-21T12:01:26;115.03;;;105.30;;
29452;SDS011;16424;50.956;5.320;2023-11-21T12:06:40;125.97;;;115.70;;
29452;SDS011;16424;50.956;5.320;2023-11-21T12:09:07;125.07;;;114.65;;
29452;SDS011;16424;50.956;5.320;2023-11-21T12:11:39;125.80;;;115.65;;
29452;SDS011;16424;50.956;5.320;2023-11-21T12:14:08;130.35;;;119.35;;
29452;SDS011;16424;50.956;5.320;2023-11-21T12:16:34;125.78;;;116.05;;
29452;SDS011;16424;50.956;5.320;2023-11-21T12:19:00;119.25;;;109.18;;
29452;SDS011;16424;50.956;5.320;2023-11-21T12:21:26;117.68;;;108.53;;
29452;SDS011;16424;50.956;5.320;2023-11-21T12:23:52;124.15;;;114.13;;
29452;SDS011;16424;50.956;5.320;2023-11-21T12:26:18;125.25;;;115.45;;
29452;SDS011;16424;50.956;5.320;2023-11-21T12:28:46;128.27;;;118.57;;
29452;SDS011;16424;50.956;5.320;2023-11-21T12:31:20;137.07;;;127.40;;
29452;SDS011;16424;50.956;5.320;2023-11-21T12:33:46;130.40;;;120.40;;
29452;SDS011;16424;50.956;5.320;2023-11-21T12:36:12;132.57;;;122.75;;
29452;SDS011;16424;50.956;5.320;2023-11-21T12:38:38;128.32;;;119.32;;
29452;SDS011;16424;50.956;5.320;2023-11-21T12:41:05;122.90;;;113.72;;
29452;SDS011;16424;50.956;5.320;2023-11-21T12:43:31;126.82;;;117.70;;
29452;SDS011;16424;50.956;5.320;2023-11-21T12:46:06;137.70;;;127.75;;
29452;SDS011;16424;50.956;5.320;2023-11-21T12:48:38;141.40;;;131.45;;
29452;SDS011;16424;50.956;5.320;2023-11-21T12:51:09;145.02;;;134.75;;
29452;SDS011;16424;50.956;5.320;2023-11-21T12:53:37;158.00;;;146.30;;
29452;SDS011;16424;50.956;5.320;2023-11-21T12:56:06;160.98;;;149.63;;
29452;SDS011;16424;50.956;5.320;2023-11-21T12:58:36;157.77;;;146.60;;
29452;SDS011;16424;50.956;5.320;2023-11-21T13:01:04;164.65;;;152.25;;
29452;SDS011;16424;50.956;5.320;2023-11-21T13:03:43;169.75;;;157.50;;
29452;SDS011;16424;50.956;5.320;2023-11-21T13:06:14;172.20;;;159.88;;
29452;SDS011;16424;50.956;5.320;2023-11-21T13:08:41;172.43;;;160.52;;
29452;SDS011;16424;50.956;5.320;2023-11-21T13:11:09;176.48;;;164.00;;
29452;SDS011;16424;50.956;5.320;2023-11-21T13:13:36;184.23;;;170.98;;
29452;SDS011;16424;50.956;5.320;2023-11-21T13:16:03;187.27;;;174.13;;
29452;SDS011;16424;50.956;5.320;2023-11-21T13:18:30;189.27;;;175.70;;
29452;SDS011;16424;50.956;5.320;2023-11-21T13:20:59;186.57;;;173.25;;
29452;SDS011;16424;50.956;5.320;2023-11-21T13:23:48;182.30;;;168.55;;
29452;SDS011;16424;50.956;5.320;2023-11-21T13:26:16;180.75;;;167.88;;
29452;SDS011;16424;50.956;5.320;2023-11-21T13:28:42;183.88;;;171.15;;
29452;SDS011;16424;50.956;5.320;2023-11-21T13:31:11;183.32;;;170.82;;
29452;SDS011;16424;50.956;5.320;2023-11-21T13:33:48;190.82;;;177.35;;
29452;SDS011;16424;50.956;5.320;2023-11-21T13:36:21;188.13;;;174.68;;
29452;SDS011;16424;50.956;5.320;2023-11-21T13:38:51;182.93;;;169.75;;
29452;SDS011;16424;50.956;5.320;2023-11-21T13:41:20;175.43;;;163.43;;
29452;SDS011;16424;50.956;5.320;2023-11-21T13:43:53;166.55;;;155.30;;
29452;SDS011;16424;50.956;5.320;2023-11-21T13:46:24;150.38;;;140.25;;
29452;SDS011;16424;50.956;5.320;2023-11-21T13:48:50;145.68;;;135.07;;
29452;SDS011;16424;50.956;5.320;2023-11-21T13:51:16;143.02;;;132.90;;
29452;SDS011;16424;50.956;5.320;2023-11-21T13:53:46;135.88;;;125.00;;
29452;SDS011;16424;50.956;5.320;2023-11-21T13:56:15;134.43;;;125.13;;
29452;SDS011;16424;50.956;5.320;2023-11-21T13:58:44;135.85;;;126.13;;
29452;SDS011;16424;50.956;5.320;2023-11-21T14:01:17;131.52;;;122.38;;
29452;SDS011;16424;50.956;5.320;2023-11-21T14:03:58;130.60;;;120.95;;
29452;SDS011;16424;50.956;5.320;2023-11-21T14:06:42;132.70;;;122.47;;
29452;SDS011;16424;50.956;5.320;2023-11-21T14:09:22;123.43;;;114.35;;
29452;SDS011;16424;50.956;5.320;2023-11-21T14:11:50;121.90;;;113.15;;
29452;SDS011;16424;50.956;5.320;2023-11-21T14:14:21;121.10;;;112.60;;